createdAt,value
2024-02-05T00:00:29.047Z,99750.63
2024-02-05T00:02:57.269Z,99742.59
2024-02-05T00:05:24.611Z,99737.47
2024-02-05T00:07:54.588Z,99729.00
2024-02-05T00:10:24.485Z,99733.06
2024-02-05T00:12:51.897Z,99731.12
2024-02-05T00:15:19.345Z,99734.53
2024-02-05T00:17:46.982Z,99732.22
2024-02-05T00:20:14.530Z,99731.44
2024-02-05T00:22:43.459Z,99718.41
2024-02-05T00:25:11.700Z,99718.31
2024-02-05T00:27:39.429Z,99727.69
2024-02-05T00:30:07.498Z,99725.88
2024-02-05T00:32:35.617Z,99719.97
2024-02-05T00:35:03.737Z,99732.34
2024-02-05T00:37:31.694Z,99732.06
2024-02-05T00:39:59.416Z,99722.66
2024-02-05T00:42:26.778Z,99723.53
2024-02-05T00:44:54.109Z,99729.38
2024-02-05T00:47:21.722Z,99736.00
2024-02-05T00:49:49.299Z,99737.72
2024-02-05T00:52:16.870Z,99741.47
2024-02-05T00:54:44.627Z,99727.53
2024-02-05T00:57:12.169Z,99741.97
2024-02-05T00:59:39.582Z,99733.19
2024-02-05T01:02:07.867Z,99737.75
2024-02-05T01:04:35.646Z,99734.06
2024-02-05T01:07:03.413Z,99728.00
2024-02-05T01:09:31.093Z,99733.34
2024-02-05T01:11:58.433Z,99734.25
2024-02-05T01:14:25.817Z,99731.53
2024-02-05T01:16:53.465Z,99740.31
2024-02-05T01:19:21.105Z,99731.03
2024-02-05T01:21:48.453Z,99723.72
2024-02-05T01:24:16.114Z,99728.16
2024-02-05T01:26:43.482Z,99727.19
2024-02-05T01:29:11.233Z,99725.47
2024-02-05T01:31:43.037Z,99724.63
2024-02-05T01:34:10.735Z,99718.69
2024-02-05T01:36:38.426Z,99711.44
2024-02-05T01:39:06.285Z,99711.53
2024-02-05T01:41:34.090Z,99719.22
2024-02-05T01:44:01.504Z,99711.44
2024-02-05T01:46:31.036Z,99707.81
2024-02-05T01:49:01.397Z,99698.59
2024-02-05T01:51:33.066Z,99690.88
2024-02-05T01:54:00.583Z,99705.53
2024-02-05T01:56:33.756Z,99696.59
2024-02-05T01:59:01.470Z,99701.41
2024-02-05T02:01:29.998Z,99704.81
2024-02-05T02:03:58.532Z,99708.28
2024-02-05T02:06:26.487Z,99698.63
2024-02-05T02:08:53.902Z,99700.56
2024-02-05T02:11:21.925Z,99700.50
2024-02-05T02:13:49.338Z,99707.22
2024-02-05T02:16:22.393Z,99714.88
2024-02-05T02:18:50.912Z,99717.38
2024-02-05T02:21:21.452Z,99717.28
2024-02-05T02:23:49.245Z,99718.41
2024-02-05T02:26:17.226Z,99711.53
2024-02-05T02:28:44.716Z,99716.59
2024-02-05T02:31:12.312Z,99721.06
2024-02-05T02:34:03.481Z,99720.97
2024-02-05T02:36:41.906Z,99717.41
2024-02-05T02:39:16.923Z,99713.88
2024-02-05T02:41:44.698Z,99711.19
2024-02-05T02:44:12.799Z,99721.88
2024-02-05T02:46:41.626Z,99724.38
2024-02-05T02:49:09.058Z,99719.91
2024-02-05T02:51:37.028Z,99712.56
2024-02-05T02:54:04.724Z,99714.28
2024-02-05T02:56:32.419Z,99707.78
2024-02-05T02:59:00.007Z,99697.88
2024-02-05T03:01:27.445Z,99702.91
2024-02-05T03:03:55.498Z,99692.50
2024-02-05T03:06:23.588Z,99697.66
2024-02-05T03:08:50.921Z,99699.34
2024-02-05T03:11:18.260Z,99692.28
2024-02-05T03:13:45.926Z,99681.00
2024-02-05T03:16:13.326Z,99677.41
2024-02-05T03:18:40.762Z,99671.38
2024-02-05T03:21:08.499Z,99672.38
2024-02-05T03:23:35.940Z,99677.59
2024-02-05T03:26:03.518Z,99677.59
2024-02-05T03:28:31.293Z,99676.81
2024-02-05T03:30:58.930Z,99676.69
2024-02-05T03:33:26.265Z,99679.34
2024-02-05T03:35:54.199Z,99674.97
2024-02-05T03:38:21.568Z,99674.06
2024-02-05T03:40:48.922Z,99671.31
2024-02-05T03:43:17.066Z,99667.91
2024-02-05T03:45:44.506Z,99660.06
2024-02-05T03:48:11.947Z,99662.72
2024-02-05T03:50:39.634Z,99671.31
2024-02-05T03:53:07.147Z,99672.34
2024-02-05T03:55:34.504Z,99676.69
2024-02-05T03:58:07.283Z,99681.03
2024-02-05T04:00:34.799Z,99678.69
2024-02-05T04:03:02.567Z,99679.50
2024-02-05T04:05:32.472Z,99678.12
2024-02-05T04:08:00.129Z,99680.66
2024-02-05T04:10:30.799Z,99687.03
2024-02-05T04:12:58.312Z,99689.53
2024-02-05T04:15:25.684Z,99676.25
2024-02-05T04:17:53.614Z,99672.97
2024-02-05T04:20:21.068Z,99669.34
2024-02-05T04:22:50.281Z,99672.91
2024-02-05T04:25:18.404Z,99662.41
2024-02-05T04:27:45.951Z,99666.97
2024-02-05T04:30:13.598Z,99659.22
2024-02-05T04:32:41.303Z,99664.44
2024-02-05T04:35:09.334Z,99649.75
2024-02-05T04:37:37.027Z,99658.69
2024-02-05T04:40:05.290Z,99659.56
2024-02-05T04:42:32.668Z,99650.78
2024-02-05T04:44:59.992Z,99652.56
2024-02-05T04:47:27.721Z,99645.00
2024-02-05T04:49:55.154Z,99648.38
2024-02-05T04:52:22.791Z,99637.28
2024-02-05T04:54:50.534Z,99639.84
2024-02-05T04:57:17.914Z,99646.16
2024-02-05T04:59:45.259Z,99649.00
2024-02-05T05:02:13.099Z,99643.59
2024-02-05T05:04:43.388Z,99655.66
2024-02-05T05:07:10.931Z,99657.53
2024-02-05T05:09:40.841Z,99650.94
2024-02-05T05:12:08.504Z,99649.06
2024-02-05T05:14:38.266Z,99655.50
2024-02-05T05:17:05.868Z,99656.03
2024-02-05T05:19:33.330Z,99647.50
2024-02-05T05:22:00.796Z,99648.25
2024-02-05T05:24:28.498Z,99642.31
2024-02-05T05:26:55.886Z,99652.63
2024-02-05T05:29:23.523Z,99650.72
2024-02-05T05:31:51.149Z,99660.34
2024-02-05T05:34:20.621Z,99652.75
2024-02-05T05:36:48.157Z,99655.47
2024-02-05T05:39:15.805Z,99658.53
2024-02-05T05:41:43.113Z,99665.53
2024-02-05T05:44:10.504Z,99673.53
2024-02-05T05:46:39.209Z,99667.31
2024-02-05T05:49:06.921Z,99670.16
2024-02-05T05:51:34.360Z,99685.06
2024-02-05T05:54:02.041Z,99686.69
2024-02-05T05:56:29.815Z,99677.03
2024-02-05T05:58:57.937Z,99673.34
2024-02-05T06:01:25.739Z,99685.69
2024-02-05T06:03:53.396Z,99689.25
2024-02-05T06:06:20.789Z,99684.94
2024-02-05T06:08:48.129Z,99697.81
2024-02-05T06:11:15.769Z,99692.47
2024-02-05T06:13:43.357Z,99693.34
2024-02-05T06:16:10.959Z,99700.28
2024-02-05T06:18:38.814Z,99706.38
2024-02-05T06:21:07.867Z,99689.16
2024-02-05T06:23:35.303Z,99695.34
2024-02-05T06:26:03.471Z,99709.03
2024-02-05T06:28:30.938Z,99711.47
2024-02-05T06:30:58.396Z,99712.47
2024-02-05T06:33:26.327Z,99708.09
2024-02-05T06:35:53.782Z,99721.06
2024-02-05T06:38:21.142Z,99721.03
2024-02-05T06:40:48.824Z,99730.50
2024-02-05T06:43:17.273Z,99734.94
2024-02-05T06:45:44.765Z,99733.97
2024-02-05T06:48:13.089Z,99734.97
2024-02-05T06:50:40.481Z,99721.53
2024-02-05T06:53:07.975Z,99721.22
2024-02-05T06:55:35.713Z,99724.59
2024-02-05T06:58:03.198Z,99712.44
2024-02-05T07:00:30.580Z,99725.13
2024-02-05T07:02:58.310Z,99724.41
2024-02-05T07:05:25.733Z,99715.09
2024-02-05T07:07:53.234Z,99713.50
2024-02-05T07:10:20.935Z,99723.41
2024-02-05T07:12:48.412Z,99732.78
2024-02-05T07:15:15.848Z,99723.94
2024-02-05T07:17:46.155Z,99741.59
2024-02-05T07:20:13.971Z,99727.66
2024-02-05T07:22:41.840Z,99733.09
2024-02-05T07:25:09.768Z,99742.72
2024-02-05T07:27:38.855Z,99742.37
2024-02-05T07:30:07.211Z,99738.88
2024-02-05T07:32:34.901Z,99743.25
2024-02-05T07:35:02.952Z,99729.16
2024-02-05T07:37:30.813Z,99752.03
2024-02-05T07:39:58.534Z,99755.72
2024-02-05T07:42:25.903Z,99742.75
2024-02-05T07:44:53.250Z,99747.88
2024-02-05T07:47:20.843Z,99756.19
2024-02-05T07:49:48.227Z,99760.62
2024-02-05T07:52:16.062Z,99752.47
2024-02-05T07:54:44.157Z,99749.28
2024-02-05T07:57:11.566Z,99750.91
2024-02-05T07:59:39.010Z,99756.72
2024-02-05T08:02:07.421Z,99762.59
2024-02-05T08:04:35.197Z,99766.88
2024-02-05T08:07:05.539Z,99778.38
2024-02-05T08:09:35.877Z,99766.94
2024-02-05T08:12:04.171Z,99776.72
2024-02-05T08:14:31.525Z,99775.97
2024-02-05T08:16:59.125Z,99779.31
2024-02-05T08:19:26.996Z,99783.94
2024-02-05T08:21:54.530Z,99780.00
2024-02-05T08:24:21.946Z,99788.06
2024-02-05T08:26:49.596Z,99781.47
2024-02-05T08:29:20.059Z,99783.84
2024-02-05T08:31:47.414Z,99799.56
2024-02-05T08:34:15.313Z,99800.22
2024-02-05T08:36:42.801Z,99794.31
2024-02-05T08:39:12.079Z,99805.44
2024-02-05T08:41:39.758Z,99802.34
2024-02-05T08:44:08.225Z,99813.09
2024-02-05T08:46:35.758Z,99805.69
2024-02-05T08:49:03.472Z,99801.59
2024-02-05T08:51:32.262Z,99810.87
2024-02-05T08:53:59.688Z,99832.22
2024-02-05T08:56:27.275Z,99838.22
2024-02-05T08:58:54.615Z,99831.41
2024-02-05T09:01:22.160Z,99824.06
2024-02-05T09:03:49.977Z,99831.00
2024-02-05T09:06:17.555Z,99834.91
2024-02-05T09:08:44.939Z,99840.66
2024-02-05T09:11:15.201Z,99831.19
2024-02-05T09:13:42.987Z,99835.38
2024-02-05T09:16:10.705Z,99832.25
2024-02-05T09:18:38.865Z,99843.63
2024-02-05T09:21:06.611Z,99846.06
2024-02-05T09:23:35.690Z,99841.53
2024-02-05T09:26:03.381Z,99852.91
2024-02-05T09:28:31.672Z,99847.78
2024-02-05T09:31:06.424Z,99837.84
2024-02-05T09:33:39.959Z,99830.97
2024-02-05T09:36:07.768Z,99825.94
2024-02-05T09:38:35.103Z,99823.31
2024-02-05T09:41:06.941Z,99816.19
2024-02-05T09:43:34.696Z,99801.00
2024-02-05T09:46:06.354Z,99822.56
2024-02-05T09:48:40.828Z,99832.75
2024-02-05T09:51:11.519Z,99831.25
2024-02-05T09:53:40.762Z,99837.03
2024-02-05T09:56:08.896Z,99842.56
2024-02-05T09:58:36.328Z,99832.44
2024-02-05T10:01:04.515Z,99846.19
2024-02-05T10:03:32.608Z,99834.09
2024-02-05T10:06:05.063Z,99846.84
2024-02-05T10:08:35.814Z,99836.09
2024-02-05T10:11:03.828Z,99839.31
2024-02-05T10:13:31.664Z,99872.41
2024-02-05T10:15:59.326Z,99850.31
2024-02-05T10:18:27.021Z,99846.16
2024-02-05T10:20:54.436Z,99852.97
2024-02-05T10:23:24.718Z,99841.34
2024-02-05T10:25:57.472Z,99850.88
2024-02-05T10:28:25.281Z,99856.84
2024-02-05T10:30:52.996Z,99846.88
2024-02-05T10:33:20.539Z,99849.50
2024-02-05T10:35:54.796Z,99845.53
2024-02-05T10:38:24.234Z,99848.81
2024-02-05T10:40:53.024Z,99843.34
2024-02-05T10:43:20.422Z,99838.25
2024-02-05T10:45:47.807Z,99848.03
2024-02-05T10:48:15.528Z,99844.94
2024-02-05T10:50:43.886Z,99851.91
2024-02-05T10:53:11.614Z,99852.97
2024-02-05T10:55:40.731Z,99843.88
2024-02-05T10:58:09.014Z,99835.28
2024-02-05T11:00:36.510Z,99825.16
2024-02-05T11:03:12.616Z,99840.94
2024-02-05T11:05:52.400Z,99823.19
2024-02-05T11:08:27.773Z,99843.41
2024-02-05T11:10:56.789Z,99818.63
2024-02-05T11:13:29.883Z,99820.66
2024-02-05T11:16:02.702Z,99822.09
2024-02-05T11:18:34.980Z,99824.53
2024-02-05T11:21:04.405Z,99833.34
2024-02-05T11:23:33.644Z,99824.53
2024-02-05T11:26:01.270Z,99829.00
2024-02-05T11:28:29.153Z,99829.22
2024-02-05T11:31:08.830Z,99838.94
2024-02-05T11:33:39.688Z,99822.16
2024-02-05T11:36:14.263Z,99827.91
2024-02-05T11:38:42.865Z,99813.47
2024-02-05T11:41:11.021Z,99822.28
2024-02-05T11:43:38.568Z,99814.75
2024-02-05T11:46:07.194Z,99804.31
2024-02-05T11:48:37.638Z,99805.69
2024-02-05T11:51:05.493Z,99786.28
2024-02-05T11:53:33.099Z,99809.78
2024-02-05T11:56:00.895Z,99784.38
2024-02-05T11:58:29.207Z,99820.31
2024-02-05T12:00:56.802Z,99814.34
2024-02-05T12:03:24.656Z,99811.09
2024-02-05T12:05:52.316Z,99815.53
2024-02-05T12:08:19.858Z,99817.69
2024-02-05T12:10:48.615Z,99809.09
2024-02-05T12:13:19.273Z,99816.34
2024-02-05T12:15:46.849Z,99810.97
2024-02-05T12:18:14.872Z,99805.72
2024-02-05T12:20:42.408Z,99810.59
2024-02-05T12:23:10.120Z,99810.37
2024-02-05T12:25:42.338Z,99809.87
2024-02-05T12:28:14.587Z,99817.91
2024-02-05T12:30:42.296Z,99814.97
2024-02-05T12:33:14.850Z,99796.06
2024-02-05T12:35:42.532Z,99807.03
2024-02-05T12:38:11.008Z,99798.72
2024-02-05T12:40:38.949Z,99792.19
2024-02-05T12:43:07.006Z,99802.19
2024-02-05T12:45:34.684Z,99799.03
2024-02-05T12:48:02.685Z,99805.09
2024-02-05T12:50:33.553Z,99802.97
2024-02-05T12:53:01.541Z,99801.94
2024-02-05T12:55:29.436Z,99803.81
2024-02-05T12:57:57.228Z,99810.72
2024-02-05T13:00:24.952Z,99805.84
2024-02-05T13:03:02.306Z,99802.66
2024-02-05T13:05:31.493Z,99802.44
2024-02-05T13:07:59.902Z,99810.91
2024-02-05T13:10:28.756Z,99812.03
2024-02-05T13:12:56.936Z,99807.31
2024-02-05T13:15:26.585Z,99802.50
2024-02-05T13:17:54.063Z,99805.44
2024-02-05T13:20:21.733Z,99814.00
2024-02-05T13:22:49.279Z,99820.22
2024-02-05T13:25:20.460Z,99817.31
2024-02-05T13:27:49.611Z,99808.63
2024-02-05T13:30:17.113Z,99827.44
2024-02-05T13:32:44.817Z,99814.44
2024-02-05T13:35:12.548Z,99807.28
2024-02-05T13:37:40.093Z,99817.75
2024-02-05T13:40:08.865Z,99814.19
2024-02-05T13:42:42.611Z,99804.94
2024-02-05T13:45:11.717Z,99788.09
2024-02-05T13:47:39.461Z,99807.31
2024-02-05T13:50:09.424Z,99804.78
2024-02-05T13:52:37.159Z,99797.47
2024-02-05T13:55:05.358Z,99786.88
2024-02-05T13:57:32.745Z,99794.13
2024-02-05T14:00:00.127Z,99800.19
2024-02-05T14:02:28.944Z,99791.25
2024-02-05T14:04:56.767Z,99793.00
2024-02-05T14:07:24.381Z,99793.16
2024-02-05T14:09:53.163Z,99779.69
2024-02-05T14:12:21.340Z,99781.41
2024-02-05T14:14:48.752Z,99787.91
2024-02-05T14:17:16.144Z,99789.44
2024-02-05T14:19:44.413Z,99781.34
2024-02-05T14:22:11.923Z,99784.59
2024-02-05T14:24:39.302Z,99788.84
2024-02-05T14:27:06.952Z,99793.38
2024-02-05T14:29:34.385Z,99781.66
2024-02-05T14:32:02.106Z,99773.91
2024-02-05T14:34:34.174Z,99787.91
2024-02-05T14:37:01.730Z,99787.66
2024-02-05T14:39:29.178Z,99798.34
2024-02-05T14:41:56.998Z,99791.16
2024-02-05T14:44:24.355Z,99799.88
2024-02-05T14:46:51.775Z,99792.38
2024-02-05T14:49:22.169Z,99785.28
2024-02-05T14:51:49.692Z,99784.75
2024-02-05T14:54:17.208Z,99802.47
2024-02-05T14:56:45.168Z,99802.66
2024-02-05T14:59:12.579Z,99795.56
2024-02-05T15:01:41.916Z,99797.06
2024-02-05T15:04:10.068Z,99799.25
2024-02-05T15:06:37.538Z,99804.28
2024-02-05T15:09:04.908Z,99807.12
2024-02-05T15:11:32.530Z,99806.50
2024-02-05T15:13:59.880Z,99806.94
2024-02-05T15:16:27.264Z,99806.16
2024-02-05T15:18:55.042Z,99800.09
2024-02-05T15:21:22.434Z,99800.66
2024-02-05T15:23:49.741Z,99797.16
2024-02-05T15:26:18.699Z,99798.03
2024-02-05T15:28:48.133Z,99805.28
2024-02-05T15:31:15.742Z,99796.75
2024-02-05T15:33:43.710Z,99793.09
2024-02-05T15:36:14.540Z,99790.91
2024-02-05T15:38:42.325Z,99781.31
2024-02-05T15:41:09.960Z,99790.00
2024-02-05T15:43:37.439Z,99788.78
2024-02-05T15:46:05.006Z,99784.19
2024-02-05T15:48:32.927Z,99799.31
2024-02-05T15:51:00.472Z,99796.84
2024-02-05T15:53:27.816Z,99807.12
2024-02-05T15:55:55.440Z,99809.44
2024-02-05T15:58:23.375Z,99814.91
2024-02-05T16:00:50.847Z,99821.22
2024-02-05T16:03:18.593Z,99816.94
2024-02-05T16:05:46.153Z,99821.84
2024-02-05T16:08:13.905Z,99822.78
2024-02-05T16:10:41.687Z,99814.94
2024-02-05T16:13:09.140Z,99815.97
2024-02-05T16:15:36.466Z,99832.34
2024-02-05T16:18:04.955Z,99836.78
2024-02-05T16:20:32.931Z,99836.56
2024-02-05T16:23:00.826Z,99835.78
2024-02-05T16:25:32.002Z,99839.63
2024-02-05T16:27:59.765Z,99843.50
2024-02-05T16:30:31.316Z,99848.56
2024-02-05T16:32:59.460Z,99844.62
2024-02-05T16:35:27.108Z,99844.75
2024-02-05T16:37:54.662Z,99851.00
2024-02-05T16:40:25.579Z,99859.62
2024-02-05T16:42:53.278Z,99862.25
2024-02-05T16:45:20.784Z,99860.53
2024-02-05T16:47:48.565Z,99861.34
2024-02-05T16:50:16.190Z,99858.88
2024-02-05T16:52:44.819Z,99860.22
2024-02-05T16:55:12.534Z,99860.56
2024-02-05T16:57:39.907Z,99867.72
2024-02-05T17:00:07.905Z,99856.97
2024-02-05T17:02:35.514Z,99859.19
2024-02-05T17:05:03.095Z,99864.16
2024-02-05T17:07:30.694Z,99873.00
2024-02-05T17:09:58.429Z,99864.09
2024-02-05T17:12:28.160Z,99858.28
2024-02-05T17:14:56.304Z,99855.78
2024-02-05T17:17:23.944Z,99842.03
2024-02-05T17:19:51.437Z,99842.09
2024-02-05T17:22:19.109Z,99845.03
2024-02-05T17:24:46.912Z,99843.59
2024-02-05T17:27:14.320Z,99846.41
2024-02-05T17:29:41.842Z,99835.88
2024-02-05T17:32:09.590Z,99838.78
2024-02-05T17:34:37.044Z,99842.03
2024-02-05T17:37:04.995Z,99844.91
2024-02-05T17:39:32.615Z,99842.06
2024-02-05T17:41:59.984Z,99841.00
2024-02-05T17:44:27.373Z,99839.50
2024-02-05T17:46:58.938Z,99840.50
2024-02-05T17:49:26.842Z,99852.50
2024-02-05T17:51:54.593Z,99850.53
2024-02-05T17:54:21.975Z,99846.13
2024-02-05T17:56:49.508Z,99862.81
2024-02-05T17:59:19.395Z,99858.00
2024-02-05T18:01:47.063Z,99864.84
2024-02-05T18:04:14.987Z,99863.91
2024-02-05T18:06:42.517Z,99865.47
2024-02-05T18:09:10.669Z,99869.03
2024-02-05T18:11:38.304Z,99869.75
2024-02-05T18:14:05.854Z,99860.19
2024-02-05T18:16:33.559Z,99875.84
2024-02-05T18:19:01.387Z,99871.41
2024-02-05T18:21:29.238Z,99872.41
2024-02-05T18:23:56.664Z,99876.53
2024-02-05T18:26:27.083Z,99884.75
2024-02-05T18:28:55.833Z,99887.31
2024-02-05T18:31:23.490Z,99883.72
2024-02-05T18:33:51.398Z,99882.75
2024-02-05T18:36:19.224Z,99875.84
2024-02-05T18:38:46.696Z,99891.34
2024-02-05T18:41:14.342Z,99893.09
2024-02-05T18:43:42.330Z,99899.22
2024-02-05T18:46:09.814Z,99893.25
2024-02-05T18:48:37.528Z,99897.84
2024-02-05T18:51:04.973Z,99902.97
2024-02-05T18:53:32.746Z,99904.56
2024-02-05T18:56:02.046Z,99908.59
2024-02-05T18:58:29.533Z,99900.09
2024-02-05T19:00:57.036Z,99904.41
2024-02-05T19:03:24.747Z,99904.41
2024-02-05T19:05:52.383Z,99914.75
2024-02-05T19:08:19.783Z,99915.69
2024-02-05T19:10:47.582Z,99910.28
2024-02-05T19:13:14.980Z,99904.22
2024-02-05T19:15:42.414Z,99911.66
2024-02-05T19:18:11.938Z,99910.69
2024-02-05T19:20:39.402Z,99908.09
2024-02-05T19:23:06.773Z,99913.03
2024-02-05T19:25:35.657Z,99907.94
2024-02-05T19:28:04.165Z,99907.25
2024-02-05T19:30:32.918Z,99902.97
2024-02-05T19:33:00.697Z,99904.81
2024-02-05T19:35:28.068Z,99905.59
2024-02-05T19:37:55.376Z,99891.28
2024-02-05T19:40:25.094Z,99890.75
2024-02-05T19:42:52.765Z,99895.41
2024-02-05T19:45:20.573Z,99897.62
2024-02-05T19:47:48.279Z,99901.91
2024-02-05T19:50:17.521Z,99900.19
2024-02-05T19:52:45.105Z,99906.09
2024-02-05T19:55:13.751Z,99906.97
2024-02-05T19:57:42.141Z,99908.50
2024-02-05T20:00:10.210Z,99919.03
2024-02-05T20:02:37.939Z,99905.97
2024-02-05T20:05:06.022Z,99914.69
2024-02-05T20:07:33.808Z,99914.81
2024-02-05T20:10:01.549Z,99911.50
2024-02-05T20:12:29.089Z,99908.69
2024-02-05T20:14:56.494Z,99917.34
2024-02-05T20:17:24.257Z,99907.25
2024-02-05T20:19:51.847Z,99902.09
2024-02-05T20:22:19.277Z,99914.34
2024-02-05T20:24:47.397Z,99894.97
2024-02-05T20:27:14.901Z,99902.06
2024-02-05T20:29:42.295Z,99898.03
2024-02-05T20:32:09.926Z,99899.84
2024-02-05T20:34:37.318Z,99895.37
2024-02-05T20:37:04.741Z,99888.34
2024-02-05T20:39:32.780Z,99886.31
2024-02-05T20:42:00.243Z,99890.72
2024-02-05T20:44:27.599Z,99884.66
2024-02-05T20:46:56.495Z,99885.81
2024-02-05T20:49:25.046Z,99884.00
2024-02-05T20:51:52.583Z,99888.66
2024-02-05T20:54:20.370Z,99880.59
2024-02-05T20:56:47.773Z,99885.75
2024-02-05T20:59:15.196Z,99886.47
2024-02-05T21:01:42.906Z,99884.03
2024-02-05T21:04:10.660Z,99877.03
2024-02-05T21:06:38.205Z,99883.88
2024-02-05T21:09:10.559Z,99877.88
2024-02-05T21:11:38.252Z,99875.31
2024-02-05T21:14:06.590Z,99881.38
2024-02-05T21:16:34.018Z,99881.25
2024-02-05T21:19:01.565Z,99876.97
2024-02-05T21:21:29.370Z,99879.06
2024-02-05T21:23:57.497Z,99880.72
2024-02-05T21:26:25.155Z,99885.75
2024-02-05T21:28:54.218Z,99875.25
2024-02-05T21:31:21.684Z,99882.25
2024-02-05T21:33:49.156Z,99890.94
2024-02-05T21:36:16.827Z,99883.50
2024-02-05T21:38:44.190Z,99892.97
2024-02-05T21:41:11.681Z,99895.47
2024-02-05T21:43:39.485Z,99897.16
2024-02-05T21:46:07.644Z,99898.78
2024-02-05T21:48:35.296Z,99892.41
2024-02-05T21:51:02.933Z,99902.94
2024-02-05T21:53:30.280Z,99909.94
2024-02-05T21:55:57.714Z,99900.47
2024-02-05T21:58:25.438Z,99901.84
2024-02-05T22:00:52.909Z,99905.50
2024-02-05T22:03:20.590Z,99901.84
2024-02-05T22:05:47.978Z,99900.06
2024-02-05T22:08:16.811Z,99897.38
2024-02-05T22:10:44.548Z,99890.50
2024-02-05T22:13:14.967Z,99897.44
2024-02-05T22:15:42.360Z,99898.22
2024-02-05T22:18:10.147Z,99901.59
2024-02-05T22:20:37.561Z,99903.34
2024-02-05T22:23:05.020Z,99896.34
2024-02-05T22:25:32.685Z,99906.12
2024-02-05T22:28:00.328Z,99898.12
2024-02-05T22:30:27.832Z,99901.56
2024-02-05T22:32:55.446Z,99903.31
2024-02-05T22:35:23.140Z,99906.78
2024-02-05T22:37:50.936Z,99905.09
2024-02-05T22:40:19.418Z,99898.12
2024-02-05T22:42:47.082Z,99902.53
2024-02-05T22:45:16.044Z,99908.69
2024-02-05T22:47:43.704Z,99909.56
2024-02-05T22:50:11.372Z,99900.84
2024-02-05T22:52:39.012Z,99910.53
2024-02-05T22:55:07.137Z,99909.78
2024-02-05T22:57:34.607Z,99912.47
2024-02-05T23:00:02.846Z,99913.41
2024-02-05T23:02:31.837Z,99909.97
2024-02-05T23:04:59.297Z,99914.41
2024-02-05T23:07:26.998Z,99918.88
2024-02-05T23:09:54.918Z,99913.75
2024-02-05T23:12:22.311Z,99913.84
2024-02-05T23:14:49.652Z,99908.78
2024-02-05T23:17:17.288Z,99911.41
2024-02-05T23:19:44.742Z,99910.69
2024-02-05T23:22:12.234Z,99913.34
2024-02-05T23:24:39.889Z,99922.97
2024-02-05T23:27:07.277Z,99921.25
2024-02-05T23:29:34.614Z,99909.13
2024-02-05T23:32:02.667Z,99919.03
2024-02-05T23:34:30.153Z,99912.03
2024-02-05T23:36:57.552Z,99905.00
2024-02-05T23:39:25.228Z,99898.12
2024-02-05T23:41:52.656Z,99899.88
2024-02-05T23:44:20.041Z,99891.19
2024-02-05T23:46:47.911Z,99888.56
2024-02-05T23:49:15.728Z,99888.59
2024-02-05T23:51:43.574Z,99882.56
2024-02-05T23:54:11.262Z,99882.53
2024-02-05T23:56:38.708Z,99882.56
2024-02-05T23:59:06.121Z,99879.00
